createdAt,value
2017-06-20T00:00:56.277Z,19.68
2017-06-20T00:10:56.241Z,19.5
2017-06-20T00:20:56.306Z,19.35
2017-06-20T00:30:56.269Z,19.2
2017-06-20T00:40:56.295Z,19.15
2017-06-20T00:50:56.271Z,18.92
2017-06-20T01:00:56.217Z,18.83
2017-06-20T01:10:56.294Z,18.77
2017-06-20T01:20:56.255Z,18.72
2017-06-20T01:30:56.239Z,18.64
2017-06-20T01:40:56.271Z,18.49
2017-06-20T01:50:56.246Z,18.73
2017-06-20T02:00:56.291Z,19.31
2017-06-20T02:10:56.257Z,19.57
2017-06-20T02:20:56.217Z,19.65
2017-06-20T02:30:56.312Z,19.6
2017-06-20T02:40:56.274Z,19.46
2017-06-20T02:50:56.317Z,19.35
2017-06-20T03:00:56.277Z,19.14
2017-06-20T03:10:56.244Z,19.24
2017-06-20T03:20:56.292Z,19.18
2017-06-20T03:30:56.271Z,19.1
2017-06-20T03:40:56.330Z,19.23
2017-06-20T03:50:56.286Z,19.35
2017-06-20T04:00:56.240Z,19.42
2017-06-20T04:10:56.322Z,19.58
2017-06-20T04:20:56.262Z,19.61
2017-06-20T04:30:56.231Z,19.86
2017-06-20T04:40:56.306Z,20.02
2017-06-20T04:50:56.270Z,20.33
2017-06-20T05:00:56.329Z,21.32
2017-06-20T05:10:56.288Z,23.02
2017-06-20T05:20:56.302Z,23.77
2017-06-20T05:30:56.242Z,23.72
2017-06-20T05:40:56.297Z,23.64
2017-06-20T05:50:56.340Z,25.42
2017-06-20T06:00:56.325Z,28.43
2017-06-20T06:10:56.292Z,30.5
2017-06-20T06:20:56.532Z,31.95
2017-06-20T06:30:56.322Z,32.73
2017-06-20T06:40:56.641Z,34.05
2017-06-20T06:50:56.368Z,33.68
2017-06-20T07:00:56.296Z,35.4
2017-06-20T07:10:56.257Z,36.29
2017-06-20T07:20:56.332Z,36.19
2017-06-20T07:30:56.262Z,37.19
2017-06-20T07:40:56.376Z,37.51
2017-06-20T07:50:56.263Z,36.91
2017-06-20T08:00:56.268Z,37.47
2017-06-20T08:10:56.264Z,38.86
2017-06-20T08:20:56.301Z,38.12
2017-06-20T08:30:56.268Z,37.09
2017-06-20T08:40:56.295Z,38.66
2017-06-20T08:50:56.283Z,39.2
2017-06-20T09:00:56.359Z,40.29
2017-06-20T09:10:56.290Z,39.52
2017-06-20T09:20:56.272Z,34.66
2017-06-20T09:30:56.312Z,32.73
2017-06-20T09:40:56.286Z,31.91
2017-06-20T09:50:56.312Z,31.13
2017-06-20T10:00:56.289Z,30.91
2017-06-20T10:10:56.304Z,31.4
2017-06-20T10:20:56.327Z,31.06
2017-06-20T10:30:56.298Z,31.48
2017-06-20T10:40:56.314Z,31.2
2017-06-20T10:50:56.314Z,31.15
2017-06-20T11:00:56.443Z,31.45
2017-06-20T11:10:56.427Z,32.07
2017-06-20T11:20:56.331Z,32.3
2017-06-20T11:30:56.367Z,32.14
2017-06-20T11:40:56.324Z,32.81
2017-06-20T11:50:56.313Z,32.66
2017-06-20T12:00:56.372Z,32.93
2017-06-20T12:10:56.405Z,33.07
2017-06-20T12:20:56.337Z,32.93
2017-06-20T12:30:56.354Z,32.55
2017-06-20T12:40:56.382Z,32.49
2017-06-20T12:50:56.394Z,32.62
2017-06-20T13:00:56.410Z,32.47
2017-06-20T13:10:56.400Z,32.64
2017-06-20T13:20:56.462Z,32.52
2017-06-20T13:30:56.404Z,32.1
2017-06-20T13:40:56.480Z,32.06
2017-06-20T13:50:56.406Z,32.02
2017-06-20T14:00:56.399Z,31.7
2017-06-20T14:10:56.446Z,31.24
2017-06-20T14:20:56.442Z,31.04
2017-06-20T14:30:56.475Z,30.24
2017-06-20T14:40:56.426Z,30.74
2017-06-20T14:50:56.515Z,30.9
2017-06-20T15:00:56.480Z,31.04
2017-06-20T15:10:56.452Z,31.09
2017-06-20T15:20:56.518Z,30.94
2017-06-20T15:30:56.448Z,30.78
2017-06-20T15:40:56.502Z,30.74
2017-06-20T15:50:56.541Z,30.37
2017-06-20T16:00:56.394Z,29.89
2017-06-20T16:10:56.436Z,29.16
2017-06-20T16:20:56.750Z,29.25
2017-06-20T16:30:56.608Z,29.15
2017-06-20T16:40:56.464Z,28.77
2017-06-20T16:50:56.423Z,28.38
2017-06-20T17:00:56.435Z,28.21
2017-06-20T17:10:57.455Z,28.14
2017-06-20T17:20:56.439Z,27.71
2017-06-20T17:30:56.433Z,27.28
2017-06-20T17:40:56.483Z,26.91
2017-06-20T17:50:56.449Z,26.54
2017-06-20T18:00:56.651Z,26.21
2017-06-20T18:10:56.596Z,25.67
2017-06-20T18:20:56.455Z,25.28
2017-06-20T18:30:56.612Z,25.16
2017-06-20T18:40:56.490Z,24.63
2017-06-20T18:50:56.577Z,24.32
2017-06-20T19:00:56.613Z,23.92
2017-06-20T19:10:56.670Z,23.55
2017-06-20T19:20:56.486Z,23.26
2017-06-20T19:30:57.083Z,22.87
2017-06-20T19:40:56.493Z,22.31
2017-06-20T19:50:56.486Z,21.92
2017-06-20T20:00:56.515Z,21.76
2017-06-20T20:10:56.512Z,21.29
2017-06-20T20:20:56.755Z,20.8
2017-06-20T20:30:56.555Z,20.49
2017-06-20T20:40:56.624Z,20.28
2017-06-20T20:50:56.567Z,19.97
2017-06-20T21:00:56.499Z,19.54
2017-06-20T21:10:56.587Z,19.35
2017-06-20T21:20:56.525Z,19.1
2017-06-20T21:30:56.529Z,18.67
2017-06-20T21:40:56.538Z,18.43
2017-06-20T21:50:56.736Z,18.33
2017-06-20T22:00:56.708Z,18.04
2017-06-20T22:10:56.569Z,17.85
2017-06-20T22:20:56.510Z,17.66
2017-06-20T22:30:56.765Z,17.51
2017-06-20T22:40:56.721Z,17.26
2017-06-20T22:50:56.586Z,17.08
2017-06-20T23:00:56.547Z,16.93
2017-06-20T23:10:56.473Z,16.77
2017-06-20T23:20:56.553Z,16.52
2017-06-20T23:30:56.563Z,16.41
2017-06-20T23:40:56.688Z,16.07
2017-06-20T23:50:56.901Z,15.99
